Time;durP1;ratioP1;P1;durP2;ratioP2;P2;SDS_P1;SDS_P2;PMS_P1;PMS_P2;Temp;Humidity;BMP_temperature;BMP_pressure;BME280_temperature;BME280_humidity;BME280_pressure;Samples;Min_cycle;Max_cycle;Signal;HPM_P1;HPM_P2
2024/04/11 00:01:17;;;;;;;18.23;6.80;;;;;;;12.43;78.56;101254.19;1433719;90;22436;-79
2024/04/11 00:03:44;;;;;;;15.20;5.73;;;;;;;12.37;79.31;101246.75;1441041;90;21471;-80
2024/04/11 00:06:11;;;;;;;18.33;4.83;;;;;;;12.38;78.96;101245.80;1436395;91;22520;-80
2024/04/11 00:08:39;;;;;;;12.07;4.87;;;;;;;12.34;79.26;101253.21;1431714;90;21523;-80
2024/04/11 00:11:06;;;;;;;8.40;4.10;;;;;;;12.27;79.46;101245.44;1440090;90;22350;-81
2024/04/11 00:13:34;;;;;;;12.63;5.67;;;;;;;12.32;79.51;101246.36;1443410;90;21721;-80
2024/04/11 00:16:01;;;;;;;16.83;5.40;;;;;;;12.31;79.40;101251.30;1436722;90;21470;-80
2024/04/11 00:18:28;;;;;;;9.30;5.23;;;;;;;12.29;79.66;101246.64;1431730;90;21515;-81
2024/04/11 00:20:55;;;;;;;14.10;5.33;;;;;;;12.26;79.92;101245.59;1422533;91;21693;-81
2024/04/11 00:23:24;;;;;;;11.17;4.87;;;;;;;12.25;80.05;101245.22;1433228;90;21479;-80
2024/04/11 00:25:57;;;;;;;11.97;4.53;;;;;;;12.24;80.06;101259.48;1432322;90;21625;-81
2024/04/11 00:28:26;;;;;;;12.00;5.30;;;;;;;12.21;80.03;101252.62;1436477;91;22512;-79
2024/04/11 00:30:53;;;;;;;19.33;6.40;;;;;;;12.24;79.74;101250.19;1429153;91;22940;-79
2024/04/11 00:33:22;;;;;;;13.33;5.83;;;;;;;12.21;80.02;101257.10;1430980;90;21529;-80
2024/04/11 00:35:50;;;;;;;21.23;4.93;;;;;;;12.16;80.61;101266.30;1400531;90;21442;-79
2024/04/11 00:38:19;;;;;;;12.87;4.63;;;;;;;12.19;80.16;101260.71;1441529;91;21507;-79
2024/04/11 00:40:58;;;;;;;9.37;5.60;;;;;;;12.15;80.23;101267.28;1414040;91;21464;-79
2024/04/11 00:43:29;;;;;;;17.70;4.30;;;;;;;12.13;80.42;101263.92;1436246;90;21500;-80
2024/04/11 00:45:58;;;;;;;10.30;5.15;;;;;;;12.13;80.91;101258.61;1432496;90;22568;-80
2024/04/11 00:48:26;;;;;;;8.85;4.53;;;;;;;12.10;80.93;101256.23;1440702;91;21463;-80
2024/04/11 00:50:55;;;;;;;9.10;4.80;;;;;;;12.10;80.74;101258.89;1437247;90;21515;-80
2024/04/11 00:53:23;;;;;;;9.13;4.63;;;;;;;12.09;80.85;101265.19;1441057;90;21456;-79
2024/04/11 00:55:51;;;;;;;12.93;4.93;;;;;;;12.05;81.11;101266.41;1437600;90;21515;-79
2024/04/11 00:58:18;;;;;;;6.73;4.53;;;;;;;12.02;81.19;101257.41;1434935;90;22558;-80
2024/04/11 01:00:46;;;;;;;13.80;5.33;;;;;;;11.96;81.41;101263.26;1415345;91;21530;-78
2024/04/11 01:03:14;;;;;;;6.63;4.67;;;;;;;12.03;81.13;101263.08;1441559;90;21501;-80
2024/04/11 01:05:41;;;;;;;11.50;4.47;;;;;;;12.00;81.22;101271.31;1437100;90;21493;-81
2024/04/11 01:08:09;;;;;;;6.67;4.10;;;;;;;12.01;80.70;101275.63;1450700;91;21540;-80
2024/04/11 01:10:37;;;;;;;10.07;4.70;;;;;;;12.00;80.95;101278.41;1440575;90;21626;-82
2024/04/11 01:13:07;;;;;;;11.93;5.57;;;;;;;11.99;81.36;101277.58;1437531;90;22425;-82
2024/04/11 01:15:35;;;;;;;10.48;5.05;;;;;;;11.96;81.10;101267.23;1439411;90;21500;-82
2024/04/11 01:18:04;;;;;;;5.97;4.53;;;;;;;11.94;81.32;101271.86;1439420;90;21478;-80
2024/04/11 01:20:32;;;;;;;14.30;4.80;;;;;;;11.93;81.30;101270.16;1441848;90;21485;-76
2024/04/11 01:23:00;;;;;;;9.27;5.20;;;;;;;11.89;81.72;101274.91;1423100;91;21618;-81
2024/04/11 01:25:29;;;;;;;10.40;4.53;;;;;;;11.92;81.25;101282.59;1434944;90;21515;-80
2024/04/11 01:27:57;;;;;;;11.73;4.10;;;;;;;11.87;81.64;101277.34;1422141;91;22574;-81
2024/04/11 01:30:26;;;;;;;9.13;5.13;;;;;;;11.84;82.01;101292.17;1437892;90;21471;-81
2024/04/11 01:33:00;;;;;;;9.03;5.10;;;;;;;11.88;81.77;101290.95;1431888;90;21655;-80
2024/04/11 01:35:25;;;;;;;12.60;5.87;;;;;;;11.91;81.65;101286.70;1438318;91;22433;-79
2024/04/11 01:37:52;;;;;;;10.23;4.47;;;;;;;11.88;81.47;101290.95;1436478;90;21619;-80
2024/04/11 01:40:19;;;;;;;6.77;4.10;;;;;;;11.88;81.65;101298.91;1441212;91;22382;-79
2024/04/11 01:42:46;;;;;;;10.43;5.00;;;;;;;11.83;81.73;101289.18;1439257;91;21560;-81
2024/04/11 01:45:13;;;;;;;7.23;4.63;;;;;;;11.84;81.79;101292.17;1434328;90;21522;-77
2024/04/11 01:47:42;;;;;;;9.53;4.63;;;;;;;11.86;81.50;101299.55;1438081;91;21633;-77
2024/04/11 01:50:09;;;;;;;6.70;3.97;;;;;;;11.85;81.94;101293.84;1437028;90;22277;-78
2024/04/11 01:52:36;;;;;;;8.17;3.70;;;;;;;11.81;82.14;101296.42;1436271;91;22581;-76
2024/04/11 01:55:04;;;;;;;6.83;3.73;;;;;;;11.82;82.14;101299.41;1441731;90;21456;-76
2024/04/11 01:57:31;;;;;;;9.60;5.20;;;;;;;11.80;82.09;101294.75;1443883;90;21456;-76
2024/04/11 01:59:58;;;;;;;12.73;4.67;;;;;;;11.80;82.13;101304.03;1435459;90;22484;-76
2024/04/11 02:02:26;;;;;;;8.70;4.37;;;;;;;11.79;81.79;101291.23;1440018;90;21486;-77
2024/04/11 02:04:54;;;;;;;11.73;4.63;;;;;;;11.79;81.97;101291.23;1420991;91;21478;-77
2024/04/11 02:07:21;;;;;;;8.97;4.37;;;;;;;11.81;81.80;101297.75;1436887;90;21538;-76
2024/04/11 02:09:48;;;;;;;11.60;5.43;;;;;;;11.78;81.94;101300.17;1436752;91;21552;-76
2024/04/11 02:12:17;;;;;;;9.27;4.67;;;;;;;11.74;82.22;101298.28;1434319;90;22410;-76
2024/04/11 02:14:46;;;;;;;11.50;4.30;;;;;;;11.73;82.24;101296.59;1439782;90;21441;-77
2024/04/11 02:17:13;;;;;;;9.53;4.53;;;;;;;11.77;82.08;101299.83;1439957;90;22270;-77
2024/04/11 02:19:45;;;;;;;5.40;3.93;;;;;;;11.74;81.96;101303.59;1433735;90;21608;-78
2024/04/11 02:22:10;;;;;;;7.00;4.00;;;;;;;11.72;82.27;101301.55;1434954;91;21650;-78
2024/04/11 02:24:37;;;;;;;9.67;5.07;;;;;;;11.69;82.57;101303.14;1441884;90;21560;-75
2024/04/11 02:27:08;;;;;;;8.57;4.33;;;;;;;11.69;82.55;101302.31;1437095;90;21508;-77
2024/04/11 02:29:35;;;;;;;7.87;4.43;;;;;;;11.69;82.30;101303.64;1438938;91;22521;-77
2024/04/11 02:32:03;;;;;;;10.07;4.57;;;;;;;11.67;82.77;101309.06;1436235;90;21644;-78
2024/04/11 02:34:30;;;;;;;7.77;4.03;;;;;;;11.65;82.97;101305.72;1437163;91;21464;-77
2024/04/11 02:36:58;;;;;;;10.70;4.50;;;;;;;11.62;82.97;101298.00;1431944;90;21687;-77
2024/04/11 02:39:25;;;;;;;8.27;3.83;;;;;;;11.60;83.11;101301.30;1438732;90;21434;-77
2024/04/11 02:41:53;;;;;;;11.83;4.77;;;;;;;11.59;83.41;101312.86;1434983;90;22433;-77
2024/04/11 02:44:20;;;;;;;12.97;5.33;;;;;;;11.59;83.70;101304.91;1413566;91;21648;-76
2024/04/11 02:46:47;;;;;;;7.93;4.27;;;;;;;11.57;83.42;101318.80;1436355;91;22396;-77
2024/04/11 02:49:15;;;;;;;6.60;4.77;;;;;;;11.60;83.51;101307.92;1440245;90;21508;-77
2024/04/11 02:51:43;;;;;;;7.60;4.33;;;;;;;11.58;83.68;101324.44;1435711;91;21545;-78
2024/04/11 02:54:10;;;;;;;12.10;4.57;;;;;;;11.53;84.10;101320.85;1425682;91;21627;-79
2024/04/11 02:56:38;;;;;;;9.03;4.87;;;;;;;11.55;84.03;101318.08;1433167;90;21575;-81
2024/04/11 02:59:05;;;;;;;10.30;5.23;;;;;;;11.52;84.44;101326.30;1439753;90;21584;-80
2024/04/11 03:01:33;;;;;;;13.47;4.13;;;;;;;11.53;84.33;101320.85;1431884;91;21486;-79
2024/04/11 03:04:01;;;;;;;14.47;4.77;;;;;;;11.48;84.95;101325.73;1438350;91;21523;-81
2024/04/11 03:06:31;;;;;;;8.03;4.00;;;;;;;11.50;84.84;101332.21;1442853;90;21537;-80
2024/04/11 03:09:00;;;;;;;10.23;4.47;;;;;;;11.47;85.21;101332.48;1436280;90;21656;-81
2024/04/11 03:11:28;;;;;;;11.73;4.55;;;;;;;11.47;84.98;101333.31;1439192;91;21537;-80
2024/04/11 03:13:57;;;;;;;10.77;4.90;;;;;;;11.43;85.39;101331.91;1445532;91;21659;-82
2024/04/11 03:16:30;;;;;;;11.13;4.43;;;;;;;11.42;85.55;101334.67;1442417;90;21464;-81
2024/04/11 03:18:57;;;;;;;11.50;5.30;;;;;;;11.48;85.05;101342.13;1440572;91;21553;-81
2024/04/11 03:21:24;;;;;;;7.07;4.03;;;;;;;11.46;85.23;101336.11;1441209;91;22462;-81
2024/04/11 03:23:53;;;;;;;9.97;4.80;;;;;;;11.47;85.29;101345.73;1441035;91;21576;-80
2024/04/11 03:26:20;;;;;;;8.00;4.13;;;;;;;11.44;85.49;101345.50;1442795;90;22255;-80
2024/04/11 03:28:47;;;;;;;9.47;4.37;;;;;;;11.44;85.54;101346.00;1424785;91;21566;-81
2024/04/11 03:31:18;;;;;;;9.37;5.37;;;;;;;11.41;86.37;101360.84;1443377;90;21523;-78
2024/04/11 03:33:46;;;;;;;13.13;4.67;;;;;;;11.41;85.89;101360.34;1437000;91;22417;-78
2024/04/11 03:36:13;;;;;;;17.83;4.60;;;;;;;11.41;85.64;101368.30;1441558;90;21530;-79
2024/04/11 03:38:41;;;;;;;6.13;4.13;;;;;;;11.42;85.80;101361.17;1443860;90;21602;-79
2024/04/11 03:41:11;;;;;;;8.63;4.80;;;;;;;11.41;86.05;101362.16;1431198;91;21419;-77
2024/04/11 03:43:42;;;;;;;7.50;4.57;;;;;;;11.41;85.95;101367.46;1434197;91;21486;-77
2024/04/11 03:46:21;;;;;;;12.00;5.37;;;;;;;11.35;86.66;101369.31;1434216;91;21419;-78
2024/04/11 03:48:57;;;;;;;6.53;4.00;;;;;;;11.35;86.22;101376.77;1435692;90;21604;-78
2024/04/11 03:51:30;;;;;;;9.70;5.30;;;;;;;11.34;86.87;101376.42;1438667;90;21435;-77
2024/04/11 03:54:00;;;;;;;8.00;4.57;;;;;;;11.37;86.25;101382.79;1435907;91;21471;-78
2024/04/11 03:56:28;;;;;;;12.37;5.42;;;;;;;11.35;87.04;101382.56;1436460;90;22409;-77
2024/04/11 03:58:57;;;;;;;9.70;4.17;;;;;;;11.34;86.36;101375.10;1436606;91;21642;-76
2024/04/11 04:01:26;;;;;;;9.77;4.77;;;;;;;11.35;87.23;101378.59;1448088;90;21449;-78
2024/04/11 04:04:03;;;;;;;8.27;4.07;;;;;;;11.32;87.47;101388.95;1432703;90;21656;-80
2024/04/11 04:06:33;;;;;;;10.57;5.27;;;;;;;11.30;87.06;101390.40;1430958;91;21508;-80
2024/04/11 04:09:10;;;;;;;9.00;4.57;;;;;;;11.30;87.42;101389.07;1441650;91;21612;-80
2024/04/11 04:11:37;;;;;;;8.07;4.30;;;;;;;11.32;87.34;101392.09;1436225;90;21552;-80
2024/04/11 04:14:09;;;;;;;15.37;5.27;;;;;;;11.29;87.76;101391.38;1430827;90;21486;-80
2024/04/11 04:16:38;;;;;;;8.93;5.43;;;;;;;11.29;87.55;101386.08;1437360;90;21640;-81
2024/04/11 04:19:05;;;;;;;8.60;5.17;;;;;;;11.34;87.45;101400.77;1438238;91;21472;-80
2024/04/11 04:21:34;;;;;;;8.63;3.97;;;;;;;11.38;87.06;101392.91;1434335;91;22315;-79
2024/04/11 04:24:05;;;;;;;8.93;4.30;;;;;;;11.35;87.34;101397.14;1432484;90;22374;-81
2024/04/11 04:26:30;;;;;;;9.03;4.90;;;;;;;11.33;87.61;101397.25;1433103;91;21485;-80
2024/04/11 04:28:58;;;;;;;12.77;4.83;;;;;;;11.34;87.52;101398.12;1443060;91;21689;-81
2024/04/11 04:31:29;;;;;;;7.67;3.90;;;;;;;11.36;87.65;101410.73;1445691;91;22403;-80
2024/04/11 04:33:59;;;;;;;8.73;4.63;;;;;;;11.36;87.25;101402.78;1440112;90;21582;-83
2024/04/11 04:36:39;;;;;;;12.55;5.53;;;;;;;11.42;87.27;101414.19;1431598;90;21552;-83
2024/04/11 04:39:05;;;;;;;11.63;5.37;;;;;;;11.43;87.49;101411.92;1435369;91;21390;-85
2024/04/11 04:41:34;;;;;;;9.53;3.90;;;;;;;11.44;86.85;101406.95;1428368;90;21492;-82
2024/04/11 04:44:02;;;;;;;14.67;5.37;;;;;;;11.48;86.40;101409.23;1438956;91;21441;-82
2024/04/11 04:46:32;;;;;;;8.07;4.30;;;;;;;11.53;86.72;101408.83;1419890;91;21567;-82
2024/04/11 04:49:03;;;;;;;10.33;4.43;;;;;;;11.55;86.38;101408.22;1438575;90;21442;-82
2024/04/11 04:51:36;;;;;;;8.63;4.17;;;;;;;11.59;85.81;101410.95;1440798;90;21487;-84
2024/04/11 04:54:02;;;;;;;7.57;4.90;;;;;;;11.65;85.71;101414.90;1441962;91;22409;-82
2024/04/11 04:56:32;;;;;;;10.17;5.13;;;;;;;11.66;84.89;101412.63;1440745;90;21662;-82
2024/04/11 04:59:00;;;;;;;10.85;4.22;;;;;;;11.71;84.72;101412.59;1436718;91;21478;-83
2024/04/11 05:01:27;;;;;;;9.57;4.60;;;;;;;11.74;84.49;101411.00;1435668;90;21515;-82
2024/04/11 05:03:58;;;;;;;6.23;3.70;;;;;;;11.81;84.41;101419.26;1443247;90;21442;-84
2024/04/11 05:06:32;;;;;;;10.43;4.58;;;;;;;11.83;83.89;101420.47;1443962;90;21716;-81
2024/04/11 05:08:59;;;;;;;18.30;5.47;;;;;;;11.85;83.44;101419.83;1433321;90;22465;-82
2024/04/11 05:11:31;;;;;;;6.97;3.70;;;;;;;11.87;83.65;101429.86;1428886;90;21558;-81
2024/04/11 05:13:57;;;;;;;13.43;4.87;;;;;;;11.86;83.72;101421.56;1438960;91;21560;-83
2024/04/11 05:16:24;;;;;;;10.63;4.97;;;;;;;11.96;83.22;101429.06;1444118;90;21485;-83
2024/04/11 05:18:53;;;;;;;10.23;4.40;;;;;;;12.03;82.89;101427.58;1439827;91;22848;-82
2024/04/11 05:21:26;;;;;;;18.40;5.00;;;;;;;12.09;82.78;101437.66;1427993;90;21397;-82
2024/04/11 05:23:55;;;;;;;9.63;4.73;;;;;;;12.16;82.02;101435.30;1418127;91;22365;-81
2024/04/11 05:26:25;;;;;;;7.93;4.20;;;;;;;12.24;81.64;101438.62;1434771;90;21411;-82
2024/04/11 05:28:56;;;;;;;11.70;5.08;;;;;;;12.33;81.52;101437.81;1439731;91;21619;-82
2024/04/11 05:31:26;;;;;;;;;;;;;;;12.44;80.61;101436.88;1444993;91;21508;-80
2024/04/11 05:33:55;;;;;;;7.27;4.00;;;;;;;12.47;79.59;101452.05;1435067;90;20324;-80
2024/04/11 05:36:28;;;;;;;9.07;3.60;;;;;;;12.51;78.72;101446.80;1439657;90;21546;-81
2024/04/11 05:38:56;;;;;;;10.37;4.93;;;;;;;12.59;78.86;101450.95;1436089;90;21486;-81
2024/04/11 05:41:24;;;;;;;9.03;4.57;;;;;;;12.68;78.11;101457.27;1439731;90;21486;-80
2024/04/11 05:43:52;;;;;;;9.30;4.00;;;;;;;12.72;77.20;101460.52;1443452;90;22506;-80
2024/04/11 05:46:20;;;;;;;8.60;4.33;;;;;;;12.80;77.51;101457.53;1431012;90;21543;-81
2024/04/11 05:48:48;;;;;;;7.63;4.80;;;;;;;12.86;76.55;101457.47;1436665;91;22536;-80
2024/04/11 05:51:16;;;;;;;13.63;5.17;;;;;;;12.92;76.61;101464.89;1436564;90;21493;-82
2024/04/11 05:53:43;;;;;;;12.67;4.77;;;;;;;12.97;76.32;101460.47;1437418;90;21448;-82
2024/04/11 05:56:12;;;;;;;7.43;3.97;;;;;;;12.99;75.41;101466.00;1445770;90;21383;-80
2024/04/11 05:58:42;;;;;;;8.87;4.60;;;;;;;13.07;75.53;101471.47;1435214;90;21530;-80
2024/04/11 06:01:15;;;;;;;16.60;4.65;;;;;;;13.17;75.17;101463.98;1437533;90;21648;-81
2024/04/11 06:03:51;;;;;;;19.40;6.57;;;;;;;13.24;74.98;101469.11;1439061;90;21471;-80
2024/04/11 06:06:19;;;;;;;10.93;4.83;;;;;;;13.35;74.85;101465.02;1436022;91;21538;-81
2024/04/11 06:08:46;;;;;;;7.67;3.95;;;;;;;13.49;74.39;101465.92;1435012;91;21472;-80
2024/04/11 06:11:19;;;;;;;13.60;5.37;;;;;;;13.61;72.90;101467.94;1438631;91;21478;-81
2024/04/11 06:13:47;;;;;;;15.20;6.37;;;;;;;13.67;72.11;101458.05;1442156;90;21507;-80
2024/04/11 06:16:15;;;;;;;10.60;3.97;;;;;;;13.70;72.16;101469.73;1438270;90;21538;-80
2024/04/11 06:18:43;;;;;;;7.93;4.57;;;;;;;13.62;71.02;101475.42;1436488;90;22581;-81
2024/04/11 06:21:18;;;;;;;15.93;4.83;;;;;;;13.64;71.53;101476.12;1435139;90;21441;-81
2024/04/11 06:23:44;;;;;;;7.93;4.43;;;;;;;13.83;71.66;101484.55;1440187;91;21536;-81
2024/04/11 06:26:13;;;;;;;16.43;5.57;;;;;;;13.91;71.04;101488.17;1413132;91;22461;-82
2024/04/11 06:28:41;;;;;;;10.87;4.97;;;;;;;13.94;69.78;101488.38;1440744;90;21633;-81
2024/04/11 06:31:12;;;;;;;10.40;4.30;;;;;;;14.08;69.42;101492.41;1432465;90;21575;-82
2024/04/11 06:33:43;;;;;;;14.10;4.92;;;;;;;13.98;68.68;101494.62;1437883;90;21494;-80
2024/04/11 06:36:13;;;;;;;8.23;4.27;;;;;;;14.13;69.54;101500.81;1441563;91;22528;-82
2024/04/11 06:38:41;;;;;;;14.43;5.73;;;;;;;14.18;68.76;101506.52;1438645;90;22181;-83
2024/04/11 06:41:08;;;;;;;19.77;6.13;;;;;;;14.22;68.59;101509.26;1445728;90;22469;-81
2024/04/11 06:43:38;;;;;;;9.80;4.43;;;;;;;14.19;68.42;101506.39;1438869;91;21612;-80
2024/04/11 06:46:06;;;;;;;17.03;5.53;;;;;;;14.37;68.92;101500.30;1440220;90;21471;-81
2024/04/11 06:48:35;;;;;;;11.83;5.77;;;;;;;14.48;68.32;101503.28;1433079;91;21442;-82
2024/04/11 06:51:06;;;;;;;12.33;5.13;;;;;;;14.62;67.59;101506.82;1436986;90;21501;-81
2024/04/11 06:53:33;;;;;;;41.05;5.60;;;;;;;14.65;66.82;101506.52;1437151;90;21493;-81
2024/04/11 06:56:00;;;;;;;10.10;5.33;;;;;;;14.70;66.09;101508.73;1439497;90;22013;-81
2024/04/11 06:58:28;;;;;;;14.77;6.43;;;;;;;14.71;66.40;101513.92;1439507;91;21589;-80
2024/04/11 07:01:01;;;;;;;10.40;4.93;;;;;;;14.69;66.07;101510.55;1430003;91;21567;-81
2024/04/11 07:03:30;;;;;;;10.83;4.77;;;;;;;14.87;66.06;101516.79;1437620;90;21690;-82
2024/04/11 07:06:05;;;;;;;11.73;5.10;;;;;;;15.00;65.66;101516.92;1436545;90;21435;-81
2024/04/11 07:08:31;;;;;;;9.67;5.00;;;;;;;15.06;64.97;101516.31;1427445;91;21559;-81
2024/04/11 07:11:18;;;;;;;14.83;5.17;;;;;;;15.24;65.70;101517.16;1442425;90;21463;-82
2024/04/11 07:13:30;;;;;;;10.90;5.03;;;;;;;15.41;64.29;101517.32;1433436;91;21523;-80
2024/04/11 07:15:58;;;;;;;8.90;5.10;;;;;;;15.56;63.90;101511.78;1439742;90;22387;-79
2024/04/11 07:18:43;;;;;;;21.50;5.20;;;;;;;15.74;63.68;101509.98;1443052;91;21648;-80
2024/04/11 07:20:56;;;;;;;11.87;5.23;;;;;;;15.70;61.58;101511.77;1473064;91;21574;-80
2024/04/11 07:23:24;;;;;;;9.67;5.10;;;;;;;15.76;62.44;101513.30;1435636;90;22395;-80
2024/04/11 07:25:51;;;;;;;8.73;4.87;;;;;;;15.69;62.00;101512.27;1435845;91;21634;-81
2024/04/11 07:28:20;;;;;;;7.13;4.57;;;;;;;15.66;61.83;101508.54;1430435;90;21531;-80
2024/04/11 07:30:49;;;;;;;9.47;4.97;;;;;;;15.66;62.27;101507.20;1443567;90;21383;-81
2024/04/11 07:33:16;;;;;;;13.70;5.33;;;;;;;15.88;63.26;101510.39;1373153;91;21604;-81
2024/04/11 07:35:45;;;;;;;11.20;4.30;;;;;;;16.14;62.27;101515.27;1484720;91;21396;-81
2024/04/11 07:38:13;;;;;;;14.90;5.47;;;;;;;16.29;60.94;101522.70;1351951;92;22344;-80
2024/04/11 07:40:54;;;;;;;10.57;4.90;;;;;;;16.25;60.56;101523.48;1370269;90;21464;-80
2024/04/11 07:43:15;;;;;;;8.90;4.80;;;;;;;16.15;60.05;101536.13;1517464;91;21355;-81
2024/04/11 07:45:44;;;;;;;12.67;4.93;;;;;;;16.34;60.94;101531.05;1365546;91;21605;-81
2024/04/11 07:48:12;;;;;;;14.47;5.00;;;;;;;16.39;59.76;101524.73;1488956;91;21411;-81
2024/04/11 07:50:39;;;;;;;15.37;5.13;;;;;;;16.32;59.22;101534.40;1518451;90;21331;-80
2024/04/11 07:53:14;;;;;;;12.50;5.30;;;;;;;16.36;59.90;101529.06;1365577;90;21449;-80
2024/04/11 07:55:38;;;;;;;9.93;5.50;;;;;;;16.67;60.97;101531.55;1423661;91;21522;-82
2024/04/11 07:58:06;;;;;;;13.23;7.27;;;;;;;16.91;59.93;101538.02;1434720;90;21455;-80
2024/04/11 08:00:39;;;;;;;17.80;5.73;;;;;;;17.02;57.94;101530.20;1438811;91;21471;-82
2024/04/11 08:03:03;;;;;;;15.03;4.50;;;;;;;17.22;58.73;101533.43;1437533;91;21670;-82
2024/04/11 08:05:30;;;;;;;10.60;5.97;;;;;;;17.33;58.38;101529.11;1435674;90;21551;-82
2024/04/11 08:07:57;;;;;;;12.30;5.33;;;;;;;17.45;58.64;101529.11;1433942;90;21567;-81
2024/04/11 08:10:27;;;;;;;12.47;5.67;;;;;;;17.61;58.05;101530.98;1437993;91;21632;-82
2024/04/11 08:12:54;;;;;;;12.50;5.77;;;;;;;17.70;57.51;101536.66;1434447;91;22424;-81
2024/04/11 08:15:21;;;;;;;8.40;5.22;;;;;;;17.78;57.16;101540.72;1442725;90;21500;-83
2024/04/11 08:17:48;;;;;;;17.85;5.37;;;;;;;17.81;57.72;101543.56;1432170;90;21478;-84
2024/04/11 08:20:15;;;;;;;8.90;5.13;;;;;;;17.71;57.03;101548.20;1437268;90;21689;-81
2024/04/11 08:22:42;;;;;;;15.75;4.70;;;;;;;17.91;56.98;101546.05;1438760;90;21603;-81
2024/04/11 08:25:12;;;;;;;8.73;5.53;;;;;;;18.17;57.52;101552.55;1413056;91;22550;-81
2024/04/11 08:27:42;;;;;;;10.23;5.50;;;;;;;18.40;56.19;101548.65;1414808;91;23141;-84
2024/04/11 08:30:11;;;;;;;15.70;5.20;;;;;;;18.51;55.35;101544.78;1435598;90;21427;-82
2024/04/11 08:32:41;;;;;;;11.65;4.37;;;;;;;18.33;54.94;101553.04;1435193;90;21751;-84
2024/04/11 08:35:08;;;;;;;20.77;5.03;;;;;;;18.40;55.80;101549.98;1439927;90;21523;-83
2024/04/11 08:37:36;;;;;;;18.50;5.85;;;;;;;18.63;55.86;101554.94;1438123;90;21419;-82
2024/04/11 08:40:10;;;;;;;13.72;4.53;;;;;;;18.70;55.22;101552.39;1441301;90;21641;-83
2024/04/11 08:42:38;;;;;;;13.58;5.10;;;;;;;18.75;55.26;101555.42;1433776;91;21560;-83
2024/04/11 08:45:07;;;;;;;14.30;5.25;;;;;;;18.75;54.04;101563.47;1512733;90;21595;-82
2024/04/11 08:47:34;;;;;;;14.28;6.15;;;;;;;18.76;54.33;101558.94;1488959;90;21397;-81
2024/04/11 08:50:05;;;;;;;10.45;4.28;;;;;;;18.76;53.83;101561.63;1518591;90;21472;-83
2024/04/11 08:52:34;;;;;;;11.35;5.00;;;;;;;18.79;53.62;101556.77;1483154;91;21427;-82
2024/04/11 08:55:02;;;;;;;13.58;4.78;;;;;;;18.89;53.08;101558.72;1362962;90;21457;-82
2024/04/11 08:57:30;;;;;;;7.25;5.33;;;;;;;19.12;54.26;101553.91;1353479;92;22388;-82
2024/04/11 09:00:02;;;;;;;;;;;;;;;19.35;53.31;101550.74;1364349;90;21435;-82
2024/04/11 09:02:29;;;;;;;7.67;4.22;;;;;;;19.55;53.67;101554.30;1363716;90;20266;-81
2024/04/11 09:04:57;;;;;;;13.15;4.67;;;;;;;19.82;53.66;101557.83;1366305;91;21509;-81
2024/04/11 09:07:24;;;;;;;14.45;4.62;;;;;;;19.80;52.18;101561.19;1364507;91;21375;-81
2024/04/11 09:09:52;;;;;;;9.60;4.33;;;;;;;19.85;52.98;101557.94;1415988;90;21537;-82
2024/04/11 09:12:23;;;;;;;9.18;4.50;;;;;;;19.84;50.80;101555.77;1433591;90;21456;-81
2024/04/11 09:14:50;;;;;;;13.40;5.05;;;;;;;19.82;51.47;101556.97;1439440;90;22453;-83
2024/04/11 09:17:17;;;;;;;11.15;5.25;;;;;;;19.89;51.94;101559.78;1441205;91;21524;-82
2024/04/11 09:19:45;;;;;;;16.27;4.67;;;;;;;19.91;50.72;101556.38;1436163;91;21987;-81
2024/04/11 09:22:14;;;;;;;13.43;4.80;;;;;;;19.93;51.58;101545.78;1438536;90;21456;-82
2024/04/11 09:24:44;;;;;;;12.27;5.43;;;;;;;20.02;51.85;101542.52;1436458;90;22388;-83
2024/04/11 09:27:16;;;;;;;7.95;4.37;;;;;;;19.94;50.81;101556.02;1346078;92;21398;-83
2024/04/11 09:29:44;;;;;;;11.85;5.22;;;;;;;20.11;52.01;101551.33;1518338;90;22211;-83
2024/04/11 09:32:16;;;;;;;12.85;4.70;;;;;;;20.33;50.50;101557.67;1370975;90;21420;-84
2024/04/11 09:34:42;;;;;;;20.20;5.15;;;;;;;20.38;50.98;101551.23;1424538;91;22594;-84
2024/04/11 09:37:15;;;;;;;12.63;4.23;;;;;;;20.49;50.64;101552.13;1418346;91;22411;-83
2024/04/11 09:39:49;;;;;;;14.53;6.10;;;;;;;20.43;50.02;101554.21;1443283;90;21522;-82
2024/04/11 09:42:25;;;;;;;9.83;4.33;;;;;;;20.34;49.86;101555.30;1438111;91;21677;-83
2024/04/11 09:44:52;;;;;;;6.70;4.12;;;;;;;20.19;49.95;101545.36;1415819;91;21450;-84
2024/04/11 09:47:26;;;;;;;;;;;;;;;20.34;50.69;101556.64;1435234;90;22396;-84
2024/04/11 09:49:53;;;;;;;9.00;4.47;;;;;;;20.42;50.34;101556.04;1424819;91;20860;-87
2024/04/11 09:52:24;;;;;;;;;;;;;;;20.45;48.59;101554.33;1443492;91;22447;-85
2024/04/11 09:54:52;;;;;;;14.13;4.40;;;;;;;20.70;50.10;101552.22;1433556;90;20280;-83
2024/04/11 09:57:21;;;;;;;13.25;4.17;;;;;;;20.88;50.45;101545.61;1420168;91;21634;-83
2024/04/11 09:59:49;;;;;;;12.88;3.80;;;;;;;20.86;49.22;101543.13;1439948;91;21412;-82
2024/04/11 10:02:20;;;;;;;9.95;4.20;;;;;;;20.73;48.89;101543.77;1440546;90;21586;-85
2024/04/11 10:04:48;;;;;;;8.50;4.12;;;;;;;20.85;49.69;101554.89;1437163;90;21493;-86
2024/04/11 10:07:19;;;;;;;11.43;4.05;;;;;;;20.94;49.67;101556.48;1436763;91;21449;-86
2024/04/11 10:09:50;;;;;;;12.00;5.10;;;;;;;21.22;50.17;101553.56;1439295;90;21478;-86
2024/04/11 10:12:19;;;;;;;10.25;4.20;;;;;;;21.22;50.17;101553.56;1430067;90;21522;-85
2024/04/11 10:14:51;;;;;;;11.15;4.10;;;;;;;21.50;50.23;101546.44;1432300;90;21717;-87
2024/04/11 10:17:21;;;;;;;11.38;4.30;;;;;;;21.36;47.58;101545.95;1436469;90;21419;-86
2024/04/11 10:19:48;;;;;;;19.52;4.55;;;;;;;21.36;48.69;101553.54;1423024;91;21546;-88
2024/04/11 10:22:24;;;;;;;7.85;3.72;;;;;;;21.45;49.11;101552.91;1445457;90;21531;-87
2024/04/11 10:24:50;;;;;;;9.48;4.03;;;;;;;21.48;47.82;101547.12;1437550;91;21522;-85
2024/04/11 10:27:20;;;;;;;15.68;4.17;;;;;;;21.60;48.54;101541.54;1443784;90;21685;-89
2024/04/11 10:29:50;;;;;;;8.98;3.70;;;;;;;21.65;47.72;101546.88;1442024;90;21530;-86
2024/04/11 10:32:26;;;;;;;6.20;3.77;;;;;;;21.48;48.36;101541.75;1435342;91;22068;-90
2024/04/11 10:34:56;;;;;;;11.33;3.67;;;;;;;21.65;48.04;101546.36;1439972;91;21624;-86
2024/04/11 10:37:33;;;;;;;8.53;3.80;;;;;;;21.70;48.65;101535.84;1441617;90;21450;-85
2024/04/11 10:40:00;;;;;;;11.18;3.98;;;;;;;21.78;47.98;101540.23;1436771;90;21516;-86
2024/04/11 10:42:39;;;;;;;9.15;3.90;;;;;;;21.83;46.07;101544.54;1435222;90;21545;-86
2024/04/11 10:45:10;;;;;;;10.38;4.15;;;;;;;21.84;47.22;101536.80;1436052;90;21507;-90
2024/04/11 10:47:41;;;;;;;4.67;3.15;;;;;;;21.92;47.27;101543.36;1433258;90;22543;-89
2024/04/11 10:50:15;;;;;;;6.10;3.33;;;;;;;21.99;47.61;101538.87;1439155;91;22058;-88
2024/04/11 10:52:47;;;;;;;6.45;3.37;;;;;;;22.01;46.27;101538.17;1440620;90;22387;-88
2024/04/11 10:55:22;;;;;;;14.90;4.03;;;;;;;22.10;46.77;101540.20;1429840;90;21448;-86
2024/04/11 10:58:13;;;;;;;5.92;3.22;;;;;;;22.30;47.81;101543.06;1434894;90;22326;-87
2024/04/11 11:06:41;;;;;;;14.73;3.70;;;;;;;22.73;45.79;101537.48;1436994;90;21727;-86
2024/04/11 11:08:59;;;;;;;7.58;3.52;;;;;;;22.84;46.22;101544.97;1419347;91;21449;-85
2024/04/11 11:11:27;;;;;;;13.70;3.72;;;;;;;22.72;46.14;101535.80;1436934;90;21575;-84
2024/04/11 11:13:55;;;;;;;8.08;4.03;;;;;;;22.81;45.88;101541.85;1442655;90;21537;-93
2024/04/11 11:16:31;;;;;;;14.05;3.77;;;;;;;22.85;46.14;101543.95;1440759;91;21492;-90
2024/04/11 11:19:01;;;;;;;17.62;4.17;;;;;;;22.98;46.19;101541.32;1431383;91;22894;-95
2024/04/11 11:21:32;;;;;;;6.78;3.33;;;;;;;23.01;45.04;101542.78;1440448;90;21449;-94
2024/04/11 11:24:06;;;;;;;10.35;2.85;;;;;;;23.04;46.03;101538.85;1444119;90;22528;-90
2024/04/11 11:26:36;;;;;;;8.45;3.37;;;;;;;23.10;45.99;101543.44;1439590;91;21522;-91
2024/04/11 11:29:19;;;;;;;9.60;3.42;;;;;;;23.33;45.72;101540.38;1435360;90;21449;-92
2024/04/11 11:31:40;;;;;;;10.08;3.50;;;;;;;23.24;44.36;101538.38;1428592;91;21493;-90
2024/04/11 11:34:09;;;;;;;13.75;3.30;;;;;;;23.02;44.08;101540.91;1425870;91;21529;-95
2024/04/11 11:36:47;;;;;;;12.10;3.87;;;;;;;22.72;44.47;101535.80;1437798;91;22558;-91